sensor_id;sensor_type;location;lat;lon;timestamp;temperature;humidity
47600;DHT22;33323;52.124;6.018;2023-08-21T00:00:56;19.50;99.90
47600;DHT22;33323;52.124;6.018;2023-08-21T00:03:23;19.50;99.90
47600;DHT22;33323;52.124;6.018;2023-08-21T00:05:50;19.50;99.90
47600;DHT22;33323;52.124;6.018;2023-08-21T00:08:17;19.50;99.90
47600;DHT22;33323;52.124;6.018;2023-08-21T00:10:44;19.40;99.90
47600;DHT22;33323;52.124;6.018;2023-08-21T00:13:11;19.40;99.90
47600;DHT22;33323;52.124;6.018;2023-08-21T00:15:38;19.40;99.90
47600;DHT22;33323;52.124;6.018;2023-08-21T00:18:06;19.40;99.90
47600;DHT22;33323;52.124;6.018;2023-08-21T00:20:33;19.30;99.90
47600;DHT22;33323;52.124;6.018;2023-08-21T00:23:00;19.40;99.90
47600;DHT22;33323;52.124;6.018;2023-08-21T00:25:27;19.50;99.90
47600;DHT22;33323;52.124;6.018;2023-08-21T00:27:54;19.50;99.90
47600;DHT22;33323;52.124;6.018;2023-08-21T00:30:21;19.50;99.90
47600;DHT22;33323;52.124;6.018;2023-08-21T00:32:48;19.50;99.90
47600;DHT22;33323;52.124;6.018;2023-08-21T00:35:15;19.50;99.90
47600;DHT22;33323;52.124;6.018;2023-08-21T00:37:42;19.40;99.90
47600;DHT22;33323;52.124;6.018;2023-08-21T00:40:10;19.40;99.90
47600;DHT22;33323;52.124;6.018;2023-08-21T00:42:37;19.30;99.90
47600;DHT22;33323;52.124;6.018;2023-08-21T00:45:05;19.20;99.90
47600;DHT22;33323;52.124;6.018;2023-08-21T00:47:35;19.20;99.90
47600;DHT22;33323;52.124;6.018;2023-08-21T00:50:03;19.20;99.90
47600;DHT22;33323;52.124;6.018;2023-08-21T00:52:34;19.20;99.90
47600;DHT22;33323;52.124;6.018;2023-08-21T00:55:03;19.20;99.90
47600;DHT22;33323;52.124;6.018;2023-08-21T00:57:31;19.10;99.90
47600;DHT22;33323;52.124;6.018;2023-08-21T01:00:00;19.00;99.90
47600;DHT22;33323;52.124;6.018;2023-08-21T01:02:28;18.90;99.90
47600;DHT22;33323;52.124;6.018;2023-08-21T01:04:55;18.90;99.90
47600;DHT22;33323;52.124;6.018;2023-08-21T01:07:22;18.80;99.90
47600;DHT22;33323;52.124;6.018;2023-08-21T01:10:01;18.70;99.90
47600;DHT22;33323;52.124;6.018;2023-08-21T01:12:55;18.70;99.90
47600;DHT22;33323;52.124;6.018;2023-08-21T01:15:29;18.70;99.90
47600;DHT22;33323;52.124;6.018;2023-08-21T01:17:57;18.70;99.90
47600;DHT22;33323;52.124;6.018;2023-08-21T01:20:25;18.60;99.90
47600;DHT22;33323;52.124;6.018;2023-08-21T01:22:52;18.50;99.90
47600;DHT22;33323;52.124;6.018;2023-08-21T01:25:19;18.60;99.90
47600;DHT22;33323;52.124;6.018;2023-08-21T01:27:49;18.60;99.90
47600;DHT22;33323;52.124;6.018;2023-08-21T01:30:17;18.50;99.90
47600;DHT22;33323;52.124;6.018;2023-08-21T01:35:28;18.40;99.90
47600;DHT22;33323;52.124;6.018;2023-08-21T01:37:57;18.50;99.90
47600;DHT22;33323;52.124;6.018;2023-08-21T01:40:26;18.50;99.90
47600;DHT22;33323;52.124;6.018;2023-08-21T01:42:53;18.50;99.90
47600;DHT22;33323;52.124;6.018;2023-08-21T01:45:21;18.50;99.90
47600;DHT22;33323;52.124;6.018;2023-08-21T01:47:50;18.50;99.90
47600;DHT22;33323;52.124;6.018;2023-08-21T01:50:17;18.40;99.90
47600;DHT22;33323;52.124;6.018;2023-08-21T01:52:45;18.40;99.90
47600;DHT22;33323;52.124;6.018;2023-08-21T01:55:12;18.40;99.90
47600;DHT22;33323;52.124;6.018;2023-08-21T01:57:39;18.40;99.90
47600;DHT22;33323;52.124;6.018;2023-08-21T02:00:07;18.40;99.90
47600;DHT22;33323;52.124;6.018;2023-08-21T02:02:41;18.40;99.90
47600;DHT22;33323;52.124;6.018;2023-08-21T02:05:09;18.40;99.90
47600;DHT22;33323;52.124;6.018;2023-08-21T02:07:36;18.40;99.90
47600;DHT22;33323;52.124;6.018;2023-08-21T02:10:03;18.50;99.90
47600;DHT22;33323;52.124;6.018;2023-08-21T02:12:32;18.50;99.90
47600;DHT22;33323;52.124;6.018;2023-08-21T02:15:01;18.60;99.90
47600;DHT22;33323;52.124;6.018;2023-08-21T02:17:32;18.40;99.90
47600;DHT22;33323;52.124;6.018;2023-08-21T02:19:59;18.20;99.90
47600;DHT22;33323;52.124;6.018;2023-08-21T02:22:26;18.00;99.90
47600;DHT22;33323;52.124;6.018;2023-08-21T02:24:53;17.90;99.90
47600;DHT22;33323;52.124;6.018;2023-08-21T02:27:20;17.90;99.90
47600;DHT22;33323;52.124;6.018;2023-08-21T02:29:47;17.90;99.90
47600;DHT22;33323;52.124;6.018;2023-08-21T02:32:14;17.80;99.90
47600;DHT22;33323;52.124;6.018;2023-08-21T02:34:41;17.90;99.90
47600;DHT22;33323;52.124;6.018;2023-08-21T02:37:08;17.90;99.90
47600;DHT22;33323;52.124;6.018;2023-08-21T02:39:35;17.80;99.90
47600;DHT22;33323;52.124;6.018;2023-08-21T02:42:03;17.70;99.90
47600;DHT22;33323;52.124;6.018;2023-08-21T02:44:30;17.60;99.90
47600;DHT22;33323;52.124;6.018;2023-08-21T02:46:57;17.60;99.90
47600;DHT22;33323;52.124;6.018;2023-08-21T02:49:24;17.70;99.90
47600;DHT22;33323;52.124;6.018;2023-08-21T02:51:51;17.80;99.90
47600;DHT22;33323;52.124;6.018;2023-08-21T02:54:18;17.80;99.90
47600;DHT22;33323;52.124;6.018;2023-08-21T02:56:45;17.70;99.90
47600;DHT22;33323;52.124;6.018;2023-08-21T02:59:12;17.70;99.90
47600;DHT22;33323;52.124;6.018;2023-08-21T03:01:39;17.60;99.90
47600;DHT22;33323;52.124;6.018;2023-08-21T03:04:06;17.60;99.90
47600;DHT22;33323;52.124;6.018;2023-08-21T03:06:33;17.50;99.90
47600;DHT22;33323;52.124;6.018;2023-08-21T03:09:00;17.50;99.90
47600;DHT22;33323;52.124;6.018;2023-08-21T03:11:27;17.50;99.90
47600;DHT22;33323;52.124;6.018;2023-08-21T03:13:54;17.50;99.90
47600;DHT22;33323;52.124;6.018;2023-08-21T03:16:21;17.60;99.90
47600;DHT22;33323;52.124;6.018;2023-08-21T03:18:56;17.60;99.90
47600;DHT22;33323;52.124;6.018;2023-08-21T03:21:27;17.60;99.90
47600;DHT22;33323;52.124;6.018;2023-08-21T03:23:57;17.60;99.90
47600;DHT22;33323;52.124;6.018;2023-08-21T03:26:29;17.50;99.90
47600;DHT22;33323;52.124;6.018;2023-08-21T03:28:56;17.40;99.90
47600;DHT22;33323;52.124;6.018;2023-08-21T03:31:24;17.40;99.90
47600;DHT22;33323;52.124;6.018;2023-08-21T03:33:51;17.30;99.90
47600;DHT22;33323;52.124;6.018;2023-08-21T03:36:20;17.20;99.90
47600;DHT22;33323;52.124;6.018;2023-08-21T03:38:47;17.20;99.90
47600;DHT22;33323;52.124;6.018;2023-08-21T03:41:15;17.20;99.90
47600;DHT22;33323;52.124;6.018;2023-08-21T03:43:42;17.20;99.90
47600;DHT22;33323;52.124;6.018;2023-08-21T03:46:09;17.20;99.90
47600;DHT22;33323;52.124;6.018;2023-08-21T03:48:36;17.20;99.90
47600;DHT22;33323;52.124;6.018;2023-08-21T03:51:03;17.20;99.90
47600;DHT22;33323;52.124;6.018;2023-08-21T03:53:30;17.30;99.90
47600;DHT22;33323;52.124;6.018;2023-08-21T03:55:59;17.30;99.90
47600;DHT22;33323;52.124;6.018;2023-08-21T03:58:26;17.30;99.90
47600;DHT22;33323;52.124;6.018;2023-08-21T04:00:53;17.20;99.90
47600;DHT22;33323;52.124;6.018;2023-08-21T04:03:21;17.20;99.90
47600;DHT22;33323;52.124;6.018;2023-08-21T04:05:48;17.20;99.90
47600;DHT22;33323;52.124;6.018;2023-08-21T04:08:16;17.30;99.90
47600;DHT22;33323;52.124;6.018;2023-08-21T04:10:43;17.20;99.90
47600;DHT22;33323;52.124;6.018;2023-08-21T04:13:10;17.20;99.90
47600;DHT22;33323;52.124;6.018;2023-08-21T04:15:38;17.30;99.90
47600;DHT22;33323;52.124;6.018;2023-08-21T04:18:06;17.30;99.90
47600;DHT22;33323;52.124;6.018;2023-08-21T04:20:35;17.40;99.90
47600;DHT22;33323;52.124;6.018;2023-08-21T04:23:02;17.40;99.90
47600;DHT22;33323;52.124;6.018;2023-08-21T04:25:30;17.30;99.90
47600;DHT22;33323;52.124;6.018;2023-08-21T04:27:57;17.30;99.90
47600;DHT22;33323;52.124;6.018;2023-08-21T04:30:24;17.20;99.90
47600;DHT22;33323;52.124;6.018;2023-08-21T04:32:52;17.20;99.90
47600;DHT22;33323;52.124;6.018;2023-08-21T04:35:19;17.10;99.90
47600;DHT22;33323;52.124;6.018;2023-08-21T04:37:47;16.90;99.90
47600;DHT22;33323;52.124;6.018;2023-08-21T04:40:17;16.90;99.90
47600;DHT22;33323;52.124;6.018;2023-08-21T04:42:47;17.00;99.90
47600;DHT22;33323;52.124;6.018;2023-08-21T04:45:14;17.10;99.90
47600;DHT22;33323;52.124;6.018;2023-08-21T04:47:42;17.20;99.90
47600;DHT22;33323;52.124;6.018;2023-08-21T04:50:11;17.20;99.90
47600;DHT22;33323;52.124;6.018;2023-08-21T04:52:38;17.20;99.90
47600;DHT22;33323;52.124;6.018;2023-08-21T04:55:06;17.20;99.90
47600;DHT22;33323;52.124;6.018;2023-08-21T04:57:35;17.20;99.90
47600;DHT22;33323;52.124;6.018;2023-08-21T05:00:05;17.20;99.90
47600;DHT22;33323;52.124;6.018;2023-08-21T05:02:37;17.10;99.90
47600;DHT22;33323;52.124;6.018;2023-08-21T05:05:06;17.00;99.90
47600;DHT22;33323;52.124;6.018;2023-08-21T05:07:34;17.10;99.90
47600;DHT22;33323;52.124;6.018;2023-08-21T05:10:02;17.10;99.90
47600;DHT22;33323;52.124;6.018;2023-08-21T05:12:33;17.20;99.90
47600;DHT22;33323;52.124;6.018;2023-08-21T05:15:00;17.50;99.90
47600;DHT22;33323;52.124;6.018;2023-08-21T05:17:28;17.80;99.90
47600;DHT22;33323;52.124;6.018;2023-08-21T05:19:56;18.20;99.90
47600;DHT22;33323;52.124;6.018;2023-08-21T05:22:24;18.20;99.90
47600;DHT22;33323;52.124;6.018;2023-08-21T05:24:52;18.20;99.90
47600;DHT22;33323;52.124;6.018;2023-08-21T05:27:19;18.20;99.90
47600;DHT22;33323;52.124;6.018;2023-08-21T05:29:46;18.10;99.90
47600;DHT22;33323;52.124;6.018;2023-08-21T05:32:14;18.00;99.90
47600;DHT22;33323;52.124;6.018;2023-08-21T05:34:41;18.00;99.90
47600;DHT22;33323;52.124;6.018;2023-08-21T05:37:08;18.10;99.90
47600;DHT22;33323;52.124;6.018;2023-08-21T05:39:36;18.30;99.90
47600;DHT22;33323;52.124;6.018;2023-08-21T05:42:03;18.50;99.90
47600;DHT22;33323;52.124;6.018;2023-08-21T05:44:31;18.50;99.90
47600;DHT22;33323;52.124;6.018;2023-08-21T05:46:58;18.80;99.90
47600;DHT22;33323;52.124;6.018;2023-08-21T05:49:25;18.90;99.90
47600;DHT22;33323;52.124;6.018;2023-08-21T05:51:52;19.20;99.90
47600;DHT22;33323;52.124;6.018;2023-08-21T05:54:20;19.20;99.90
47600;DHT22;33323;52.124;6.018;2023-08-21T05:56:48;19.20;99.90
47600;DHT22;33323;52.124;6.018;2023-08-21T05:59:27;19.10;99.90
47600;DHT22;33323;52.124;6.018;2023-08-21T06:01:58;19.40;99.90
47600;DHT22;33323;52.124;6.018;2023-08-21T06:04:26;19.70;99.90
47600;DHT22;33323;52.124;6.018;2023-08-21T06:07:00;20.20;99.90
47600;DHT22;33323;52.124;6.018;2023-08-21T06:09:28;20.70;99.90
47600;DHT22;33323;52.124;6.018;2023-08-21T06:11:56;21.20;99.90
47600;DHT22;33323;52.124;6.018;2023-08-21T06:14:23;21.60;99.90
47600;DHT22;33323;52.124;6.018;2023-08-21T06:17:04;22.00;99.90
47600;DHT22;33323;52.124;6.018;2023-08-21T06:19:32;22.20;99.90
47600;DHT22;33323;52.124;6.018;2023-08-21T06:21:59;22.40;99.90
47600;DHT22;33323;52.124;6.018;2023-08-21T06:24:26;22.70;99.90
47600;DHT22;33323;52.124;6.018;2023-08-21T06:26:59;23.00;99.90
47600;DHT22;33323;52.124;6.018;2023-08-21T06:29:26;23.20;99.90
47600;DHT22;33323;52.124;6.018;2023-08-21T06:31:54;23.20;99.90
47600;DHT22;33323;52.124;6.018;2023-08-21T06:34:22;23.20;99.90
47600;DHT22;33323;52.124;6.018;2023-08-21T06:36:50;23.60;99.90
47600;DHT22;33323;52.124;6.018;2023-08-21T06:39:17;23.80;99.90
47600;DHT22;33323;52.124;6.018;2023-08-21T06:41:44;24.00;99.90
47600;DHT22;33323;52.124;6.018;2023-08-21T06:44:17;24.20;99.90
47600;DHT22;33323;52.124;6.018;2023-08-21T06:46:44;24.20;99.90
47600;DHT22;33323;52.124;6.018;2023-08-21T06:49:13;24.20;99.90
47600;DHT22;33323;52.124;6.018;2023-08-21T06:51:40;24.40;99.90
47600;DHT22;33323;52.124;6.018;2023-08-21T06:54:10;24.40;99.90
47600;DHT22;33323;52.124;6.018;2023-08-21T06:56:38;24.30;99.90
47600;DHT22;33323;52.124;6.018;2023-08-21T06:59:05;24.50;99.90
47600;DHT22;33323;52.124;6.018;2023-08-21T07:01:32;24.70;99.90
47600;DHT22;33323;52.124;6.018;2023-08-21T07:04:00;24.50;99.90
47600;DHT22;33323;52.124;6.018;2023-08-21T07:06:28;24.80;99.90
47600;DHT22;33323;52.124;6.018;2023-08-21T07:08:56;25.20;99.90
47600;DHT22;33323;52.124;6.018;2023-08-21T07:11:23;25.40;99.90
47600;DHT22;33323;52.124;6.018;2023-08-21T07:13:50;25.30;99.90
47600;DHT22;33323;52.124;6.018;2023-08-21T07:16:17;25.10;99.90
47600;DHT22;33323;52.124;6.018;2023-08-21T07:18:45;24.90;99.90
47600;DHT22;33323;52.124;6.018;2023-08-21T07:21:12;24.70;99.90
47600;DHT22;33323;52.124;6.018;2023-08-21T07:23:59;24.40;99.90
47600;DHT22;33323;52.124;6.018;2023-08-21T07:26:26;24.40;99.90
47600;DHT22;33323;52.124;6.018;2023-08-21T07:28:55;24.20;99.90
47600;DHT22;33323;52.124;6.018;2023-08-21T07:31:23;23.70;99.90
47600;DHT22;33323;52.124;6.018;2023-08-21T07:33:50;23.50;99.90
47600;DHT22;33323;52.124;6.018;2023-08-21T07:36:18;23.40;99.90
47600;DHT22;33323;52.124;6.018;2023-08-21T07:38:46;23.30;99.90
47600;DHT22;33323;52.124;6.018;2023-08-21T07:41:13;23.20;99.90
47600;DHT22;33323;52.124;6.018;2023-08-21T07:43:42;23.00;99.90
47600;DHT22;33323;52.124;6.018;2023-08-21T07:46:12;22.80;99.90
47600;DHT22;33323;52.124;6.018;2023-08-21T07:48:46;22.80;99.90
47600;DHT22;33323;52.124;6.018;2023-08-21T07:51:13;22.70;99.90
47600;DHT22;33323;52.124;6.018;2023-08-21T07:53:41;22.70;99.90
47600;DHT22;33323;52.124;6.018;2023-08-21T07:56:09;22.80;99.90
47600;DHT22;33323;52.124;6.018;2023-08-21T07:58:36;22.90;99.90
47600;DHT22;33323;52.124;6.018;2023-08-21T08:01:04;23.00;99.90
47600;DHT22;33323;52.124;6.018;2023-08-21T08:03:34;23.20;99.90
47600;DHT22;33323;52.124;6.018;2023-08-21T08:06:04;23.50;99.90
47600;DHT22;33323;52.124;6.018;2023-08-21T08:08:31;23.70;99.90
47600;DHT22;33323;52.124;6.018;2023-08-21T08:11:03;23.80;99.90
47600;DHT22;33323;52.124;6.018;2023-08-21T08:13:31;23.80;99.90
47600;DHT22;33323;52.124;6.018;2023-08-21T08:15:59;23.60;99.90
47600;DHT22;33323;52.124;6.018;2023-08-21T08:18:27;23.50;99.90
47600;DHT22;33323;52.124;6.018;2023-08-21T08:20:55;23.60;99.90
47600;DHT22;33323;52.124;6.018;2023-08-21T08:23:22;24.10;99.90
47600;DHT22;33323;52.124;6.018;2023-08-21T08:25:50;24.10;99.90
47600;DHT22;33323;52.124;6.018;2023-08-21T08:28:17;24.30;99.90
47600;DHT22;33323;52.124;6.018;2023-08-21T08:30:46;24.50;99.90
47600;DHT22;33323;52.124;6.018;2023-08-21T08:33:13;24.60;99.90
47600;DHT22;33323;52.124;6.018;2023-08-21T08:35:41;24.80;99.90
47600;DHT22;33323;52.124;6.018;2023-08-21T08:38:08;25.10;99.90
47600;DHT22;33323;52.124;6.018;2023-08-21T08:40:44;25.30;99.90
47600;DHT22;33323;52.124;6.018;2023-08-21T08:43:13;25.60;99.90
47600;DHT22;33323;52.124;6.018;2023-08-21T08:45:41;26.00;99.90
47600;DHT22;33323;52.124;6.018;2023-08-21T08:48:10;26.40;99.90
47600;DHT22;33323;52.124;6.018;2023-08-21T08:50:37;26.60;99.90
47600;DHT22;33323;52.124;6.018;2023-08-21T08:53:07;26.40;99.90
47600;DHT22;33323;52.124;6.018;2023-08-21T08:55:44;26.70;99.90
47600;DHT22;33323;52.124;6.018;2023-08-21T08:58:11;27.10;99.90
47600;DHT22;33323;52.124;6.018;2023-08-21T09:00:39;27.00;99.90
47600;DHT22;33323;52.124;6.018;2023-08-21T09:03:07;27.40;99.90
47600;DHT22;33323;52.124;6.018;2023-08-21T09:05:38;27.30;99.90
47600;DHT22;33323;52.124;6.018;2023-08-21T09:08:10;26.50;99.90
47600;DHT22;33323;52.124;6.018;2023-08-21T09:10:42;25.70;99.90
47600;DHT22;33323;52.124;6.018;2023-08-21T09:13:14;25.30;99.90
47600;DHT22;33323;52.124;6.018;2023-08-21T09:15:48;25.60;99.90
47600;DHT22;33323;52.124;6.018;2023-08-21T09:18:20;26.10;99.90
47600;DHT22;33323;52.124;6.018;2023-08-21T09:20:47;26.30;99.90
47600;DHT22;33323;52.124;6.018;2023-08-21T09:23:16;26.80;99.90
47600;DHT22;33323;52.124;6.018;2023-08-21T09:25:46;27.40;99.90
47600;DHT22;33323;52.124;6.018;2023-08-21T09:28:19;27.80;99.90
47600;DHT22;33323;52.124;6.018;2023-08-21T09:30:55;27.90;99.90
47600;DHT22;33323;52.124;6.018;2023-08-21T09:33:23;27.70;99.90
47600;DHT22;33323;52.124;6.018;2023-08-21T09:35:52;27.40;99.90
47600;DHT22;33323;52.124;6.018;2023-08-21T09:38:19;27.10;99.90
47600;DHT22;33323;52.124;6.018;2023-08-21T09:40:52;27.60;99.90
47600;DHT22;33323;52.124;6.018;2023-08-21T09:43:23;28.30;99.90
47600;DHT22;33323;52.124;6.018;2023-08-21T09:45:53;28.70;99.90
47600;DHT22;33323;52.124;6.018;2023-08-21T09:48:26;28.90;99.90
47600;DHT22;33323;52.124;6.018;2023-08-21T09:50:59;28.20;99.90
47600;DHT22;33323;52.124;6.018;2023-08-21T09:53:30;27.80;99.90
47600;DHT22;33323;52.124;6.018;2023-08-21T09:56:00;27.80;99.90
47600;DHT22;33323;52.124;6.018;2023-08-21T09:58:30;28.10;99.90
47600;DHT22;33323;52.124;6.018;2023-08-21T10:00:58;28.20;99.90
47600;DHT22;33323;52.124;6.018;2023-08-21T10:03:26;28.60;99.90
47600;DHT22;33323;52.124;6.018;2023-08-21T10:05:57;29.20;99.90
47600;DHT22;33323;52.124;6.018;2023-08-21T10:08:26;29.60;99.90
47600;DHT22;33323;52.124;6.018;2023-08-21T10:10:55;30.10;99.90
47600;DHT22;33323;52.124;6.018;2023-08-21T10:13:23;30.00;99.90
47600;DHT22;33323;52.124;6.018;2023-08-21T10:15:51;30.00;99.90
47600;DHT22;33323;52.124;6.018;2023-08-21T10:18:30;29.60;99.90
47600;DHT22;33323;52.124;6.018;2023-08-21T10:23:50;29.70;99.90
47600;DHT22;33323;52.124;6.018;2023-08-21T10:26:20;29.90;99.90
47600;DHT22;33323;52.124;6.018;2023-08-21T10:31:37;29.30;99.90
47600;DHT22;33323;52.124;6.018;2023-08-21T10:34:10;28.70;99.90
47600;DHT22;33323;52.124;6.018;2023-08-21T10:39:24;28.10;99.90
47600;DHT22;33323;52.124;6.018;2023-08-21T10:41:56;27.70;99.90
47600;DHT22;33323;52.124;6.018;2023-08-21T10:44:53;27.80;99.90
47600;DHT22;33323;52.124;6.018;2023-08-21T10:49:55;27.80;99.90
47600;DHT22;33323;52.124;6.018;2023-08-21T10:52:44;27.70;99.90
47600;DHT22;33323;52.124;6.018;2023-08-21T10:55:14;27.90;99.90
47600;DHT22;33323;52.124;6.018;2023-08-21T10:57:42;27.50;99.90
47600;DHT22;33323;52.124;6.018;2023-08-21T11:00:11;27.60;99.90
47600;DHT22;33323;52.124;6.018;2023-08-21T11:02:42;27.20;99.90
47600;DHT22;33323;52.124;6.018;2023-08-21T11:05:14;27.10;99.90
47600;DHT22;33323;52.124;6.018;2023-08-21T11:07:44;26.80;99.90
47600;DHT22;33323;52.124;6.018;2023-08-21T11:10:18;26.80;99.90
47600;DHT22;33323;52.124;6.018;2023-08-21T11:12:53;26.80;99.90
47600;DHT22;33323;52.124;6.018;2023-08-21T11:15:28;26.80;99.90
47600;DHT22;33323;52.124;6.018;2023-08-21T11:17:58;26.70;99.90
47600;DHT22;33323;52.124;6.018;2023-08-21T11:20:29;26.80;99.90
47600;DHT22;33323;52.124;6.018;2023-08-21T11:23:05;27.10;99.90
47600;DHT22;33323;52.124;6.018;2023-08-21T11:25:38;27.10;99.90
47600;DHT22;33323;52.124;6.018;2023-08-21T11:28:07;27.00;99.90
47600;DHT22;33323;52.124;6.018;2023-08-21T11:30:36;26.60;99.90
47600;DHT22;33323;52.124;6.018;2023-08-21T11:33:10;26.90;99.90
47600;DHT22;33323;52.124;6.018;2023-08-21T11:35:40;27.20;99.90
47600;DHT22;33323;52.124;6.018;2023-08-21T11:38:21;27.20;99.90
47600;DHT22;33323;52.124;6.018;2023-08-21T11:43:41;27.00;99.90
47600;DHT22;33323;52.124;6.018;2023-08-21T11:46:10;27.40;99.90
47600;DHT22;33323;52.124;6.018;2023-08-21T11:48:39;28.10;99.90
47600;DHT22;33323;52.124;6.018;2023-08-21T11:51:08;28.70;99.90
47600;DHT22;33323;52.124;6.018;2023-08-21T11:53:40;28.80;99.90
47600;DHT22;33323;52.124;6.018;2023-08-21T11:56:14;28.90;99.90
47600;DHT22;33323;52.124;6.018;2023-08-21T11:58:44;29.30;99.90
47600;DHT22;33323;52.124;6.018;2023-08-21T12:01:17;29.80;99.90
47600;DHT22;33323;52.124;6.018;2023-08-21T12:03:45;30.10;99.90
47600;DHT22;33323;52.124;6.018;2023-08-21T12:06:13;30.30;99.90
47600;DHT22;33323;52.124;6.018;2023-08-21T12:08:41;29.40;99.90
47600;DHT22;33323;52.124;6.018;2023-08-21T12:11:09;29.50;99.90
47600;DHT22;33323;52.124;6.018;2023-08-21T12:13:36;29.70;99.90
47600;DHT22;33323;52.124;6.018;2023-08-21T12:16:04;29.80;99.90
47600;DHT22;33323;52.124;6.018;2023-08-21T12:18:32;29.90;99.90
47600;DHT22;33323;52.124;6.018;2023-08-21T12:21:00;29.80;99.90
47600;DHT22;33323;52.124;6.018;2023-08-21T12:23:27;30.00;99.90
47600;DHT22;33323;52.124;6.018;2023-08-21T12:25:55;30.00;99.90
47600;DHT22;33323;52.124;6.018;2023-08-21T12:28:22;29.80;99.90
47600;DHT22;33323;52.124;6.018;2023-08-21T12:30:50;30.20;99.90
47600;DHT22;33323;52.124;6.018;2023-08-21T12:33:18;30.40;99.90
47600;DHT22;33323;52.124;6.018;2023-08-21T12:35:50;30.60;99.90
47600;DHT22;33323;52.124;6.018;2023-08-21T12:38:18;30.50;99.90
47600;DHT22;33323;52.124;6.018;2023-08-21T12:40:47;30.80;99.90
47600;DHT22;33323;52.124;6.018;2023-08-21T12:43:15;31.10;99.90
47600;DHT22;33323;52.124;6.018;2023-08-21T12:45:42;30.70;99.90
47600;DHT22;33323;52.124;6.018;2023-08-21T12:48:11;30.40;99.90
47600;DHT22;33323;52.124;6.018;2023-08-21T12:50:38;30.60;99.90
47600;DHT22;33323;52.124;6.018;2023-08-21T12:53:06;30.50;99.90
47600;DHT22;33323;52.124;6.018;2023-08-21T12:55:34;30.10;99.90
47600;DHT22;33323;52.124;6.018;2023-08-21T12:58:01;29.70;99.90
47600;DHT22;33323;52.124;6.018;2023-08-21T13:00:29;29.40;99.90
47600;DHT22;33323;52.124;6.018;2023-08-21T13:02:59;29.00;99.90
47600;DHT22;33323;52.124;6.018;2023-08-21T13:05:27;29.30;99.90
47600;DHT22;33323;52.124;6.018;2023-08-21T13:07:55;29.50;99.90
47600;DHT22;33323;52.124;6.018;2023-08-21T13:10:23;29.60;99.90
47600;DHT22;33323;52.124;6.018;2023-08-21T13:12:51;30.20;99.90
47600;DHT22;33323;52.124;6.018;2023-08-21T13:15:20;30.50;99.90
47600;DHT22;33323;52.124;6.018;2023-08-21T13:17:47;30.50;99.90
47600;DHT22;33323;52.124;6.018;2023-08-21T13:20:15;30.30;99.90
47600;DHT22;33323;52.124;6.018;2023-08-21T13:22:52;30.50;99.90
47600;DHT22;33323;52.124;6.018;2023-08-21T13:25:22;30.70;99.90
47600;DHT22;33323;52.124;6.018;2023-08-21T13:27:52;30.70;99.90
47600;DHT22;33323;52.124;6.018;2023-08-21T13:30:20;30.70;99.90
47600;DHT22;33323;52.124;6.018;2023-08-21T13:32:49;30.80;99.90
47600;DHT22;33323;52.124;6.018;2023-08-21T13:35:17;30.50;99.90
47600;DHT22;33323;52.124;6.018;2023-08-21T13:37:46;30.50;99.90
47600;DHT22;33323;52.124;6.018;2023-08-21T13:40:14;30.40;99.90
47600;DHT22;33323;52.124;6.018;2023-08-21T13:42:44;30.30;99.90
47600;DHT22;33323;52.124;6.018;2023-08-21T13:45:17;30.20;99.90
47600;DHT22;33323;52.124;6.018;2023-08-21T13:47:48;30.00;99.90
47600;DHT22;33323;52.124;6.018;2023-08-21T13:50:18;29.70;99.90
47600;DHT22;33323;52.124;6.018;2023-08-21T13:52:47;29.80;99.90
47600;DHT22;33323;52.124;6.018;2023-08-21T13:55:16;29.80;99.90
47600;DHT22;33323;52.124;6.018;2023-08-21T13:57:45;29.80;99.90
47600;DHT22;33323;52.124;6.018;2023-08-21T14:00:13;29.20;99.90
47600;DHT22;33323;52.124;6.018;2023-08-21T14:02:41;28.90;99.90
47600;DHT22;33323;52.124;6.018;2023-08-21T14:05:10;29.20;99.90
47600;DHT22;33323;52.124;6.018;2023-08-21T14:07:38;29.30;99.90
47600;DHT22;33323;52.124;6.018;2023-08-21T14:10:08;29.40;99.90
47600;DHT22;33323;52.124;6.018;2023-08-21T14:12:36;29.60;99.90
47600;DHT22;33323;52.124;6.018;2023-08-21T14:15:09;29.90;99.90
47600;DHT22;33323;52.124;6.018;2023-08-21T14:17:38;30.20;99.90
47600;DHT22;33323;52.124;6.018;2023-08-21T14:20:07;29.70;99.90
47600;DHT22;33323;52.124;6.018;2023-08-21T14:22:34;29.70;99.90
47600;DHT22;33323;52.124;6.018;2023-08-21T14:25:03;29.80;99.90
47600;DHT22;33323;52.124;6.018;2023-08-21T14:27:33;29.70;99.90
47600;DHT22;33323;52.124;6.018;2023-08-21T14:30:03;29.90;99.90
47600;DHT22;33323;52.124;6.018;2023-08-21T14:32:33;29.80;99.90
47600;DHT22;33323;52.124;6.018;2023-08-21T14:35:05;29.60;99.90
47600;DHT22;33323;52.124;6.018;2023-08-21T14:37:36;29.50;99.90
47600;DHT22;33323;52.124;6.018;2023-08-21T14:40:04;29.50;99.90
47600;DHT22;33323;52.124;6.018;2023-08-21T14:42:37;29.40;99.90
47600;DHT22;33323;52.124;6.018;2023-08-21T14:45:06;29.70;99.90
47600;DHT22;33323;52.124;6.018;2023-08-21T14:47:34;29.90;99.90
47600;DHT22;33323;52.124;6.018;2023-08-21T14:50:05;29.70;99.90
47600;DHT22;33323;52.124;6.018;2023-08-21T14:52:33;29.80;99.90
47600;DHT22;33323;52.124;6.018;2023-08-21T14:55:01;29.80;99.90
47600;DHT22;33323;52.124;6.018;2023-08-21T14:57:28;29.50;99.90
47600;DHT22;33323;52.124;6.018;2023-08-21T14:59:56;29.30;99.90
47600;DHT22;33323;52.124;6.018;2023-08-21T15:02:24;29.10;99.90
47600;DHT22;33323;52.124;6.018;2023-08-21T15:04:51;29.00;99.90
47600;DHT22;33323;52.124;6.018;2023-08-21T15:07:18;29.20;99.90
47600;DHT22;33323;52.124;6.018;2023-08-21T15:09:46;29.20;99.90
47600;DHT22;33323;52.124;6.018;2023-08-21T15:12:15;28.90;99.90
47600;DHT22;33323;52.124;6.018;2023-08-21T15:14:42;28.80;99.90
47600;DHT22;33323;52.124;6.018;2023-08-21T15:17:10;28.90;99.90
47600;DHT22;33323;52.124;6.018;2023-08-21T15:19:47;29.10;99.90
47600;DHT22;33323;52.124;6.018;2023-08-21T15:22:18;29.30;99.90
47600;DHT22;33323;52.124;6.018;2023-08-21T15:24:47;29.40;99.90
47600;DHT22;33323;52.124;6.018;2023-08-21T15:27:15;29.70;99.90
47600;DHT22;33323;52.124;6.018;2023-08-21T15:29:44;29.90;99.90
47600;DHT22;33323;52.124;6.018;2023-08-21T15:32:12;29.80;99.90
47600;DHT22;33323;52.124;6.018;2023-08-21T15:34:40;29.60;99.90
47600;DHT22;33323;52.124;6.018;2023-08-21T15:37:07;29.50;99.90
47600;DHT22;33323;52.124;6.018;2023-08-21T15:39:35;29.20;99.90
47600;DHT22;33323;52.124;6.018;2023-08-21T15:42:03;29.20;99.90
47600;DHT22;33323;52.124;6.018;2023-08-21T15:44:30;29.40;99.90
47600;DHT22;33323;52.124;6.018;2023-08-21T15:46:58;29.40;99.90
47600;DHT22;33323;52.124;6.018;2023-08-21T15:49:46;29.40;99.90
47600;DHT22;33323;52.124;6.018;2023-08-21T15:52:14;29.40;99.90
47600;DHT22;33323;52.124;6.018;2023-08-21T15:54:42;29.30;99.90
47600;DHT22;33323;52.124;6.018;2023-08-21T15:57:10;29.10;99.90